createdAt,value
2018-09-05T00:00:16.253Z,98997.58
2018-09-05T00:02:44.595Z,98997.64
2018-09-05T00:05:12.894Z,99001.44
2018-09-05T00:07:41.236Z,99006.45
2018-09-05T00:10:09.743Z,98995.44
2018-09-05T00:12:38.118Z,98999.58
2018-09-05T00:15:06.939Z,98998.41
2018-09-05T00:17:35.287Z,98993.55
2018-09-05T00:20:03.639Z,98993.82
2018-09-05T00:22:31.988Z,98994.94
2018-09-05T00:25:00.359Z,98992.74
2018-09-05T00:27:28.676Z,98992.14
2018-09-05T00:29:57.189Z,98987.44
2018-09-05T00:32:25.563Z,98986.44
2018-09-05T00:34:53.898Z,98991.47
2018-09-05T00:37:22.429Z,98986.97
2018-09-05T00:39:50.804Z,98989.20
2018-09-05T00:42:19.254Z,98980.08
2018-09-05T00:44:47.710Z,98986.08
2018-09-05T00:47:16.103Z,98984.08
2018-09-05T00:49:44.538Z,98986.92
2018-09-05T00:52:12.850Z,98978.13
2018-09-05T00:54:41.251Z,98984.08
2018-09-05T00:57:09.611Z,98981.39
2018-09-05T00:59:38.007Z,98980.55
2018-09-05T01:02:06.378Z,98977.73
2018-09-05T01:04:34.856Z,98978.47
2018-09-05T01:07:34.443Z,98981.28
2018-09-05T01:10:02.814Z,98985.35
2018-09-05T01:12:32.032Z,98981.28
2018-09-05T01:15:00.474Z,98987.33
2018-09-05T01:17:29.128Z,98984.78
2018-09-05T01:19:57.521Z,98987.75
2018-09-05T01:22:25.975Z,98989.46
2018-09-05T01:24:54.426Z,98986.59
2018-09-05T01:27:22.854Z,98988.55
2018-09-05T01:29:51.161Z,98985.44
2018-09-05T01:32:19.514Z,98984.94
2018-09-05T01:34:47.945Z,98983.31
2018-09-05T01:37:16.287Z,98986.73
2018-09-05T01:39:44.613Z,98985.63
2018-09-05T01:42:12.942Z,98981.02
2018-09-05T01:44:41.451Z,98984.12
2018-09-05T01:47:09.766Z,98980.48
2018-09-05T01:49:38.119Z,98976.23
2018-09-05T01:52:06.486Z,98979.71
2018-09-05T01:54:34.803Z,98970.31
2018-09-05T01:57:03.138Z,98978.31
2018-09-05T01:59:31.479Z,98978.05
2018-09-05T02:01:59.983Z,98979.23
2018-09-05T02:04:28.434Z,98974.45
2018-09-05T02:06:56.763Z,98970.92
2018-09-05T02:09:25.175Z,98973.17
2018-09-05T02:11:53.535Z,98979.25
2018-09-05T02:14:21.862Z,98979.59
2018-09-05T02:16:50.199Z,98975.00
2018-09-05T02:19:18.617Z,98973.27
2018-09-05T02:21:46.950Z,98978.38
2018-09-05T02:24:15.371Z,98975.39
2018-09-05T02:26:43.867Z,98979.73
2018-09-05T02:29:12.227Z,98979.48
2018-09-05T02:31:40.635Z,98978.08
2018-09-05T02:34:09.047Z,98984.67
2018-09-05T02:36:37.375Z,98979.63
2018-09-05T02:39:08.313Z,98981.16
2018-09-05T02:41:36.690Z,98981.89
2018-09-05T02:44:10.363Z,98973.80
2018-09-05T02:46:38.659Z,98973.16
2018-09-05T02:49:07.024Z,98977.67
2018-09-05T02:51:35.343Z,98970.02
2018-09-05T02:54:03.983Z,98975.22
2018-09-05T02:56:32.275Z,98970.19
2018-09-05T02:59:00.593Z,98973.92
2018-09-05T03:01:28.954Z,98972.59
2018-09-05T03:03:57.317Z,98973.50
2018-09-05T03:06:25.650Z,98973.77
2018-09-05T03:08:54.025Z,98966.27
2018-09-05T03:11:22.346Z,98975.66
2018-09-05T03:13:50.695Z,98973.22
2018-09-05T03:16:19.015Z,98975.73
2018-09-05T03:18:47.425Z,98977.72
2018-09-05T03:21:15.768Z,98974.20
2018-09-05T03:23:44.060Z,98977.69
2018-09-05T03:26:12.401Z,98971.98
2018-09-05T03:28:40.765Z,98973.08
2018-09-05T03:31:09.281Z,98975.53
2018-09-05T03:33:37.576Z,98974.30
2018-09-05T03:36:05.925Z,98973.52
2018-09-05T03:38:34.293Z,98981.70
2018-09-05T03:41:02.692Z,98978.53
2018-09-05T03:43:31.008Z,98981.14
2018-09-05T03:45:59.361Z,98980.20
2018-09-05T03:48:27.737Z,98985.81
2018-09-05T03:50:56.078Z,98981.22
2018-09-05T03:53:24.821Z,98985.40
2018-09-05T03:55:53.952Z,98987.63
2018-09-05T03:58:22.273Z,98990.18
2018-09-05T04:00:50.643Z,98986.27
2018-09-05T04:03:18.939Z,98988.30
2018-09-05T04:05:47.247Z,98994.36
2018-09-05T04:08:15.590Z,98992.53
2018-09-05T04:10:43.940Z,98988.77
2018-09-05T04:13:12.275Z,98981.44
2018-09-05T04:15:40.632Z,98981.98
2018-09-05T04:18:08.996Z,98979.50
2018-09-05T04:20:37.358Z,98983.34
2018-09-05T04:23:09.309Z,98982.48
2018-09-05T04:25:40.313Z,98980.06
2018-09-05T04:28:10.991Z,98985.59
2018-09-05T04:30:42.098Z,98989.66
2018-09-05T04:33:14.099Z,98997.27
2018-09-05T04:35:45.100Z,99000.64
2018-09-05T04:38:25.257Z,99001.86
2018-09-05T04:40:57.798Z,99006.14
2018-09-05T04:43:31.386Z,99007.19
2018-09-05T04:46:02.962Z,99006.63
2018-09-05T04:48:34.234Z,99000.47
2018-09-05T04:51:06.128Z,99005.81
2018-09-05T04:53:36.805Z,99002.48
2018-09-05T04:56:09.285Z,99004.68
2018-09-05T04:58:41.011Z,99000.39
2018-09-05T05:01:11.465Z,99000.59
2018-09-05T05:03:42.397Z,99000.94
2018-09-05T05:06:14.386Z,99009.43
2018-09-05T05:08:47.281Z,99009.87
2018-09-05T05:11:21.461Z,99012.55
2018-09-05T05:13:54.691Z,99015.16
2018-09-05T05:16:28.069Z,99008.05
2018-09-05T05:18:57.250Z,99011.73
2018-09-05T05:21:26.200Z,99011.75
2018-09-05T05:24:24.343Z,99013.20
2018-09-05T05:27:19.541Z,99016.88
2018-09-05T05:29:47.919Z,99018.22
2018-09-05T05:32:16.276Z,99019.33
2018-09-05T05:34:44.598Z,99021.16
2018-09-05T05:37:12.987Z,99024.14
2018-09-05T05:39:42.047Z,99019.00
2018-09-05T05:42:10.383Z,99017.42
2018-09-05T05:44:38.687Z,99012.63
2018-09-05T05:47:07.026Z,99016.31
2018-09-05T05:49:35.399Z,99015.89
2018-09-05T05:52:03.852Z,99016.89
2018-09-05T05:54:32.264Z,99020.11
2018-09-05T05:57:00.654Z,99019.95
2018-09-05T05:59:28.974Z,99029.31
2018-09-05T06:01:57.331Z,99018.81
2018-09-05T06:04:25.631Z,99021.25
2018-09-05T06:06:54.055Z,99023.84
2018-09-05T06:09:22.378Z,99022.44
2018-09-05T06:11:50.727Z,99019.73
2018-09-05T06:14:19.042Z,99019.84
2018-09-05T06:16:47.419Z,99016.57
2018-09-05T06:19:15.752Z,99018.17
2018-09-05T06:21:44.073Z,99017.42
2018-09-05T06:24:12.426Z,99020.20
2018-09-05T06:26:40.864Z,99017.44
2018-09-05T06:29:09.291Z,99015.78
2018-09-05T06:31:37.804Z,99023.95
2018-09-05T06:34:06.187Z,99026.49
2018-09-05T06:36:34.595Z,99024.19
2018-09-05T06:39:02.940Z,99030.46
2018-09-05T06:42:05.339Z,99028.48
2018-09-05T06:44:33.675Z,99031.69
2018-09-05T06:47:02.029Z,99032.23
2018-09-05T06:49:30.428Z,99031.25
2018-09-05T06:51:58.832Z,99030.77
2018-09-05T06:54:27.202Z,99031.78
2018-09-05T06:56:55.629Z,99026.73
2018-09-05T06:59:23.903Z,99030.09
2018-09-05T07:01:52.228Z,99026.39
2018-09-05T07:04:20.543Z,99037.34
2018-09-05T07:06:49.033Z,99027.06
2018-09-05T07:09:17.631Z,99032.47
2018-09-05T07:11:46.020Z,99031.27
2018-09-05T07:14:14.604Z,99033.59
2018-09-05T07:16:42.886Z,99034.27
2018-09-05T07:19:12.488Z,99030.53
2018-09-05T07:21:40.845Z,99031.52
2018-09-05T07:24:09.153Z,99032.66
2018-09-05T07:26:37.950Z,99032.16
2018-09-05T07:29:06.589Z,99038.69
2018-09-05T07:31:34.930Z,99034.95
2018-09-05T07:34:03.323Z,99038.31
2018-09-05T07:36:31.716Z,99036.26
2018-09-05T07:39:00.144Z,99035.95
2018-09-05T07:41:28.525Z,99041.09
2018-09-05T07:43:56.836Z,99036.14
2018-09-05T07:46:25.163Z,99034.46
2018-09-05T07:48:53.511Z,99042.50
2018-09-05T07:51:21.816Z,99040.94
2018-09-05T07:53:50.251Z,99039.27
2018-09-05T07:56:18.803Z,99046.01
2018-09-05T07:58:47.271Z,99042.34
2018-09-05T08:01:15.605Z,99042.35
2018-09-05T08:03:44.199Z,99040.63
2018-09-05T08:06:12.643Z,99045.00
2018-09-05T08:08:41.039Z,99039.36
2018-09-05T08:11:09.325Z,99039.55
2018-09-05T08:13:37.867Z,99031.75
2018-09-05T08:16:06.543Z,99039.02
2018-09-05T08:18:34.868Z,99039.81
2018-09-05T08:21:03.197Z,99040.41
2018-09-05T08:23:31.539Z,99037.28
2018-09-05T08:25:59.823Z,99034.33
2018-09-05T08:28:28.194Z,99034.33
2018-09-05T08:30:56.550Z,99036.45
2018-09-05T08:33:24.844Z,99041.48
2018-09-05T08:35:53.364Z,99039.05
2018-09-05T08:38:21.613Z,99043.30
2018-09-05T08:40:50.765Z,99037.78
2018-09-05T08:43:19.219Z,99034.05
2018-09-05T08:45:47.866Z,99032.87
2018-09-05T08:48:16.067Z,99031.78
2018-09-05T08:50:44.325Z,99028.62
2018-09-05T08:53:12.766Z,99028.59
2018-09-05T08:55:41.103Z,99027.05
2018-09-05T08:58:09.490Z,99032.88
2018-09-05T09:00:37.886Z,99028.81
2018-09-05T09:03:06.284Z,99023.14
2018-09-05T09:05:34.724Z,99024.75
2018-09-05T09:08:03.096Z,99020.08
2018-09-05T09:10:31.449Z,99019.44
2018-09-05T09:12:59.759Z,99020.88
2018-09-05T09:15:28.038Z,99027.27
2018-09-05T09:17:56.353Z,99013.75
2018-09-05T09:20:24.667Z,99018.58
2018-09-05T09:22:53.074Z,99014.00
2018-09-05T09:25:21.407Z,99009.16
2018-09-05T09:27:49.791Z,99009.31
2018-09-05T09:30:18.103Z,99004.39
2018-09-05T09:32:46.385Z,99006.21
2018-09-05T09:35:14.759Z,99003.81
2018-09-05T09:37:43.049Z,99000.38
2018-09-05T09:40:11.450Z,99001.73
2018-09-05T09:42:39.734Z,99001.91
2018-09-05T09:45:08.070Z,98999.77
2018-09-05T09:47:36.383Z,99003.20
2018-09-05T09:50:04.799Z,98998.56
2018-09-05T09:52:37.369Z,98988.65
2018-09-05T09:55:07.049Z,98992.64
2018-09-05T09:57:35.403Z,98995.72
2018-09-05T10:00:03.769Z,98989.95
2018-09-05T10:02:37.635Z,98993.16
2018-09-05T10:05:11.435Z,98988.25
2018-09-05T10:07:45.118Z,98987.80
2018-09-05T10:10:19.093Z,98982.70
2018-09-05T10:12:49.907Z,98982.39
2018-09-05T10:15:23.456Z,98983.30
2018-09-05T10:17:57.051Z,98980.82
2018-09-05T10:20:25.430Z,98978.96
2018-09-05T10:22:53.820Z,98973.51
2018-09-05T10:25:22.158Z,98982.01
2018-09-05T10:27:50.468Z,98969.87
2018-09-05T10:30:18.783Z,98969.34
2018-09-05T10:32:47.135Z,98969.88
2018-09-05T10:35:15.436Z,98966.41
2018-09-05T10:37:43.746Z,98960.03
2018-09-05T10:40:12.042Z,98965.27
2018-09-05T10:42:40.366Z,98963.98
2018-09-05T10:45:08.665Z,98959.39
2018-09-05T10:47:36.959Z,98957.27
2018-09-05T10:50:05.255Z,98955.63
2018-09-05T10:52:33.565Z,98953.50
2018-09-05T10:55:01.882Z,98950.66
2018-09-05T10:57:30.220Z,98950.50
2018-09-05T10:59:58.652Z,98950.84
2018-09-05T11:02:27.054Z,98953.25
2018-09-05T11:04:55.363Z,98951.77
2018-09-05T11:07:23.709Z,98947.44
2018-09-05T11:09:52.032Z,98941.36
2018-09-05T11:12:20.348Z,98941.31
2018-09-05T11:14:48.713Z,98936.70
2018-09-05T11:17:17.018Z,98932.61
2018-09-05T11:19:45.390Z,98928.88
2018-09-05T11:22:13.730Z,98931.33
2018-09-05T11:24:42.068Z,98931.94
2018-09-05T11:27:10.511Z,98929.47
2018-09-05T11:29:39.072Z,98922.50
2018-09-05T11:32:08.109Z,98921.20
2018-09-05T11:34:36.640Z,98921.28
2018-09-05T11:37:05.308Z,98919.39
2018-09-05T11:39:33.790Z,98909.47
2018-09-05T11:42:02.203Z,98917.03
2018-09-05T11:44:30.575Z,98908.12
2018-09-05T11:46:58.888Z,98901.05
2018-09-05T11:49:27.311Z,98911.95
2018-09-05T11:51:55.641Z,98904.73
2018-09-05T11:54:24.086Z,98899.23
2018-09-05T11:56:52.546Z,98901.73
2018-09-05T11:59:20.958Z,98906.35
2018-09-05T12:01:49.298Z,98905.89
2018-09-05T12:04:17.645Z,98896.44
2018-09-05T12:06:46.034Z,98895.17
2018-09-05T12:09:14.454Z,98891.62
2018-09-05T12:11:42.963Z,98889.41
2018-09-05T12:14:11.496Z,98896.64
2018-09-05T12:16:39.871Z,98895.44
2018-09-05T12:19:08.535Z,98895.41
2018-09-05T12:21:37.245Z,98895.48
2018-09-05T12:24:05.578Z,98886.03
2018-09-05T12:26:34.081Z,98892.19
2018-09-05T12:29:04.287Z,98889.41
2018-09-05T12:31:32.890Z,98883.22
2018-09-05T12:34:01.227Z,98888.31
2018-09-05T12:36:29.717Z,98885.30
2018-09-05T12:38:58.062Z,98881.96
2018-09-05T12:41:26.386Z,98879.08
2018-09-05T12:43:54.794Z,98877.24
2018-09-05T12:46:23.157Z,98871.75
2018-09-05T12:48:51.460Z,98874.07
2018-09-05T12:51:19.834Z,98871.47
2018-09-05T12:53:48.164Z,98865.59
2018-09-05T12:56:16.624Z,98861.63
2018-09-05T12:58:44.945Z,98863.90
2018-09-05T13:01:13.352Z,98860.20
2018-09-05T13:03:41.762Z,98855.90
2018-09-05T13:06:10.126Z,98853.77
2018-09-05T13:08:38.454Z,98852.33
2018-09-05T13:11:06.855Z,98848.14
2018-09-05T13:13:35.167Z,98848.67
2018-09-05T13:16:03.577Z,98849.95
2018-09-05T13:18:31.899Z,98844.78
2018-09-05T13:21:00.901Z,98846.23
2018-09-05T13:23:29.258Z,98848.73
2018-09-05T13:25:57.539Z,98847.20
2018-09-05T13:28:25.890Z,98838.58
2018-09-05T13:30:54.277Z,98836.22
2018-09-05T13:33:22.706Z,98833.41
2018-09-05T13:35:51.078Z,98837.28
2018-09-05T13:38:19.386Z,98825.48
2018-09-05T13:40:47.745Z,98825.36
2018-09-05T13:43:16.094Z,98824.11
2018-09-05T13:45:44.471Z,98821.02
2018-09-05T13:48:12.897Z,98819.28
2018-09-05T13:50:41.417Z,98827.27
2018-09-05T13:53:09.927Z,98824.66
2018-09-05T13:55:38.426Z,98818.40
2018-09-05T13:58:06.860Z,98828.73
2018-09-05T14:00:35.407Z,98813.72
2018-09-05T14:03:03.746Z,98819.13
2018-09-05T14:05:32.124Z,98822.21
2018-09-05T14:08:00.880Z,98819.48
2018-09-05T14:10:29.351Z,98816.69
2018-09-05T14:12:57.657Z,98815.91
2018-09-05T14:15:26.231Z,98815.98
2018-09-05T14:17:54.825Z,98816.55
2018-09-05T14:20:23.312Z,98814.66
2018-09-05T14:22:51.777Z,98809.72
2018-09-05T14:25:20.338Z,98804.87
2018-09-05T14:27:48.712Z,98819.00
2018-09-05T14:30:17.328Z,98816.73
2018-09-05T14:32:45.687Z,98812.89
2018-09-05T14:35:14.400Z,98806.59
2018-09-05T14:37:42.730Z,98806.77
2018-09-05T14:40:11.284Z,98802.72
2018-09-05T14:42:39.490Z,98793.87
2018-09-05T14:45:08.026Z,98794.83
2018-09-05T14:47:36.461Z,98798.39
2018-09-05T14:50:05.220Z,98788.77
2018-09-05T14:52:33.718Z,98791.49
2018-09-05T14:55:02.310Z,98786.88
2018-09-05T14:57:31.005Z,98789.23
2018-09-05T14:59:59.482Z,98780.58
2018-09-05T15:02:27.894Z,98788.77
2018-09-05T15:04:56.534Z,98781.40
2018-09-05T15:07:25.126Z,98783.00
2018-09-05T15:09:53.660Z,98779.81
2018-09-05T15:12:22.102Z,98771.90
2018-09-05T15:14:50.466Z,98768.88
2018-09-05T15:17:18.966Z,98773.56
2018-09-05T15:19:47.407Z,98769.64
2018-09-05T15:22:15.962Z,98769.64
2018-09-05T15:24:44.270Z,98769.64
2018-09-05T15:27:12.549Z,98766.43
2018-09-05T15:29:40.952Z,98756.30
2018-09-05T15:32:09.490Z,98764.59
2018-09-05T15:34:37.998Z,98758.19
2018-09-05T15:37:06.420Z,98763.77
2018-09-05T15:39:34.869Z,98758.14
2018-09-05T15:42:03.418Z,98756.88
2018-09-05T15:44:31.880Z,98756.17
2018-09-05T15:47:00.262Z,98759.48
2018-09-05T15:49:28.668Z,98761.16
2018-09-05T15:51:57.146Z,98755.80
2018-09-05T15:54:26.698Z,98756.34
2018-09-05T15:56:55.068Z,98754.28
2018-09-05T15:59:24.077Z,98753.45
2018-09-05T16:01:53.408Z,98751.42
2018-09-05T16:04:21.714Z,98749.23
2018-09-05T16:06:50.066Z,98743.84
2018-09-05T16:09:18.409Z,98746.67
2018-09-05T16:11:46.876Z,98745.14
2018-09-05T16:14:15.222Z,98744.41
2018-09-05T16:16:43.688Z,98745.38
2018-09-05T16:19:11.963Z,98739.48
2018-09-05T16:21:40.365Z,98738.78
2018-09-05T16:24:08.762Z,98736.12
2018-09-05T16:26:37.114Z,98737.88
2018-09-05T16:29:05.458Z,98741.53
2018-09-05T16:31:35.430Z,98745.09
2018-09-05T16:34:04.491Z,98741.83
2018-09-05T16:36:32.903Z,98736.84
2018-09-05T16:39:03.443Z,98731.55
2018-09-05T16:41:32.118Z,98733.13
2018-09-05T16:44:01.731Z,98738.47
2018-09-05T16:46:31.767Z,98736.26
2018-09-05T16:49:02.683Z,98731.38
2018-09-05T16:51:32.680Z,98731.61
2018-09-05T16:54:03.282Z,98731.30
2018-09-05T16:56:34.799Z,98736.15
2018-09-05T16:59:06.046Z,98732.39
2018-09-05T17:01:38.403Z,98736.28
2018-09-05T17:04:10.268Z,98731.70
2018-09-05T17:06:40.908Z,98732.85
2018-09-05T17:09:13.134Z,98737.42
2018-09-05T17:11:43.879Z,98735.08
2018-09-05T17:14:15.646Z,98739.91
2018-09-05T17:16:46.200Z,98737.17
2018-09-05T17:19:18.010Z,98738.13
2018-09-05T17:21:48.089Z,98743.38
2018-09-05T17:24:20.491Z,98735.97
2018-09-05T17:26:51.136Z,98742.77
2018-09-05T17:29:21.101Z,98740.50
2018-09-05T17:31:52.442Z,98736.95
2018-09-05T17:34:23.995Z,98744.14
2018-09-05T17:36:56.875Z,98739.54
2018-09-05T17:39:29.685Z,98747.50
2018-09-05T17:42:05.209Z,98746.83
2018-09-05T17:44:33.798Z,98757.62
2018-09-05T17:47:02.404Z,98759.17
2018-09-05T17:49:30.804Z,98755.94
2018-09-05T17:51:59.132Z,98755.90
2018-09-05T17:54:29.278Z,98765.59
2018-09-05T17:56:57.654Z,98765.27
2018-09-05T17:59:26.075Z,98764.64
2018-09-05T18:01:54.512Z,98769.58
2018-09-05T18:04:27.091Z,98766.03
2018-09-05T18:06:57.599Z,98764.34
2018-09-05T18:09:31.400Z,98769.20
2018-09-05T18:15:01.438Z,98780.91
2018-09-05T18:17:34.851Z,98779.61
2018-09-05T18:20:05.505Z,98780.71
2018-09-05T18:22:35.808Z,98776.73
2018-09-05T18:25:07.184Z,98782.53
2018-09-05T18:27:37.876Z,98783.06
2018-09-05T18:30:09.875Z,98779.30
2018-09-05T18:32:41.151Z,98792.09
2018-09-05T18:35:11.595Z,98791.89
2018-09-05T18:37:41.218Z,98793.84
2018-09-05T18:40:12.526Z,98803.51
2018-09-05T18:42:42.613Z,98804.58
2018-09-05T18:45:13.381Z,98805.48
2018-09-05T18:47:43.866Z,98813.87
2018-09-05T18:50:15.958Z,98809.27
2018-09-05T18:52:47.273Z,98811.83
2018-09-05T18:55:17.952Z,98813.69
2018-09-05T18:57:49.413Z,98811.83
2018-09-05T19:00:20.059Z,98813.50
2018-09-05T19:02:50.846Z,98808.09
2018-09-05T19:05:20.954Z,98809.54
2018-09-05T19:07:53.206Z,98809.92
2018-09-05T19:10:23.488Z,98816.42
2018-09-05T19:12:55.022Z,98815.92
2018-09-05T19:15:26.298Z,98808.66
2018-09-05T19:17:57.269Z,98811.83
2018-09-05T19:20:28.374Z,98812.45
2018-09-05T19:22:59.438Z,98813.16
2018-09-05T19:25:30.768Z,98807.34
2018-09-05T19:28:01.036Z,98814.28
2018-09-05T19:30:32.131Z,98810.48
2018-09-05T19:33:01.968Z,98808.36
2018-09-05T19:35:32.114Z,98811.66
2018-09-05T19:38:03.166Z,98817.50
2018-09-05T19:40:34.142Z,98809.48
2018-09-05T19:43:05.500Z,98807.83
2018-09-05T19:45:36.866Z,98809.92
2018-09-05T19:48:07.705Z,98809.14
2018-09-05T19:50:39.444Z,98807.61
2018-09-05T19:53:11.139Z,98805.52
2018-09-05T19:55:43.996Z,98806.08
2018-09-05T19:58:16.498Z,98803.47
2018-09-05T20:00:46.972Z,98807.05
2018-09-05T20:03:18.295Z,98810.64
2018-09-05T20:05:49.044Z,98807.61
2018-09-05T20:08:19.858Z,98802.77
2018-09-05T20:10:53.248Z,98805.94
2018-09-05T20:13:25.564Z,98810.80
2018-09-05T20:15:59.483Z,98806.47
2018-09-05T20:18:35.495Z,98804.94
2018-09-05T20:21:06.140Z,98802.72
2018-09-05T20:23:35.399Z,98801.94
2018-09-05T20:26:03.974Z,98803.52
2018-09-05T20:28:32.568Z,98810.88
2018-09-05T20:31:01.057Z,98812.63
2018-09-05T20:33:29.958Z,98815.14
2018-09-05T20:35:58.503Z,98811.46
2018-09-05T20:38:26.956Z,98810.14
2018-09-05T20:40:55.237Z,98810.41
2018-09-05T20:43:23.961Z,98813.17
2018-09-05T20:45:52.350Z,98817.97
2018-09-05T20:48:20.843Z,98806.40
2018-09-05T20:50:49.193Z,98805.33
2018-09-05T20:53:18.939Z,98803.98
2018-09-05T20:55:47.277Z,98806.31
2018-09-05T20:58:15.658Z,98808.00
2018-09-05T21:00:43.966Z,98806.52
2018-09-05T21:03:12.737Z,98808.93
2018-09-05T21:05:41.071Z,98798.81
2018-09-05T21:08:10.080Z,98804.37
2018-09-05T21:10:38.758Z,98802.52
2018-09-05T21:13:07.057Z,98804.47
2018-09-05T21:15:35.390Z,98801.87
2018-09-05T21:18:03.775Z,98799.48
2018-09-05T21:20:32.062Z,98801.56
2018-09-05T21:23:00.799Z,98805.16
2018-09-05T21:25:29.426Z,98801.48
2018-09-05T21:27:57.768Z,98805.83
2018-09-05T21:30:26.157Z,98801.95
2018-09-05T21:32:54.505Z,98799.40
2018-09-05T21:35:22.860Z,98800.97
2018-09-05T21:37:51.221Z,98797.11
2018-09-05T21:40:19.555Z,98791.21
2018-09-05T21:42:47.961Z,98796.94
2018-09-05T21:45:16.286Z,98794.76
2018-09-05T21:47:44.578Z,98799.13
2018-09-05T21:50:12.915Z,98794.23
2018-09-05T21:52:41.295Z,98789.70
2018-09-05T21:55:09.726Z,98792.19
2018-09-05T21:57:38.082Z,98792.56
2018-09-05T22:00:08.526Z,98796.09
2018-09-05T22:02:36.918Z,98798.95
2018-09-05T22:05:05.418Z,98791.72
2018-09-05T22:07:33.735Z,98795.25
2018-09-05T22:10:02.134Z,98790.72
2018-09-05T22:12:30.529Z,98796.10
2018-09-05T22:14:58.864Z,98793.41
2018-09-05T22:17:27.190Z,98788.37
2018-09-05T22:19:55.588Z,98791.72
2018-09-05T22:22:23.838Z,98799.14
2018-09-05T22:24:52.153Z,98789.05
2018-09-05T22:27:20.444Z,98796.72
2018-09-05T22:29:48.708Z,98795.55
2018-09-05T22:32:17.063Z,98802.81
2018-09-05T22:34:45.344Z,98800.92
2018-09-05T22:37:13.592Z,98799.58
2018-09-05T22:39:41.883Z,98793.41
2018-09-05T22:42:12.336Z,98801.62
2018-09-05T22:44:52.558Z,98796.19
2018-09-05T22:47:32.185Z,98791.95
2018-09-05T22:50:17.192Z,98799.24
2018-09-05T22:53:14.728Z,98795.05
2018-09-05T22:58:02.694Z,98793.33
2018-09-05T23:00:45.690Z,98787.64
2018-09-05T23:03:24.395Z,98787.74
2018-09-05T23:08:08.794Z,98785.05
2018-09-05T23:10:48.433Z,98782.56
2018-09-05T23:14:26.592Z,98779.48
2018-09-05T23:19:42.006Z,98778.69
2018-09-05T23:22:10.285Z,98770.39
2018-09-05T23:24:38.588Z,98777.08
2018-09-05T23:27:06.919Z,98773.09
2018-09-05T23:29:35.169Z,98767.50
2018-09-05T23:32:03.462Z,98762.14
2018-09-05T23:34:31.720Z,98760.67
2018-09-05T23:37:00.062Z,98763.47
2018-09-05T23:39:28.394Z,98762.36
2018-09-05T23:41:56.718Z,98760.30
2018-09-05T23:44:24.993Z,98754.55
2018-09-05T23:46:53.314Z,98758.52
2018-09-05T23:49:21.574Z,98754.09
2018-09-05T23:51:49.843Z,98748.73
2018-09-05T23:54:18.211Z,98748.22
2018-09-05T23:56:46.501Z,98753.15
2018-09-05T23:59:14.793Z,98749.86
